createdAt,value
2022-11-30T00:00:16.680Z,101690.34
2022-11-30T00:02:49.605Z,101693.97
2022-11-30T00:05:21.123Z,101691.91
2022-11-30T00:07:51.831Z,101687.59
2022-11-30T00:10:23.693Z,101692.72
2022-11-30T00:12:54.743Z,101686.47
2022-11-30T00:15:24.923Z,101687.59
2022-11-30T00:18:00.182Z,101685.84
2022-11-30T00:20:30.380Z,101692.06
2022-11-30T00:23:00.497Z,101686.91
2022-11-30T00:25:30.538Z,101691.09
2022-11-30T00:28:01.800Z,101694.63
2022-11-30T00:30:31.971Z,101695.97
2022-11-30T00:33:02.071Z,101696.78
2022-11-30T00:35:32.158Z,101691.03
2022-11-30T00:38:03.473Z,101689.69
2022-11-30T00:40:33.478Z,101692.72
2022-11-30T00:43:01.975Z,101693.31
2022-11-30T00:45:30.408Z,101688.97
2022-11-30T00:47:58.822Z,101690.06
2022-11-30T00:50:27.439Z,101684.97
2022-11-30T00:52:57.581Z,101696.00
2022-11-30T00:55:29.199Z,101697.94
2022-11-30T00:58:01.998Z,101693.84
2022-11-30T01:00:32.046Z,101703.63
2022-11-30T01:03:03.048Z,101697.22
2022-11-30T01:05:35.497Z,101698.38
2022-11-30T01:08:10.537Z,101700.63
2022-11-30T01:10:44.269Z,101703.91
2022-11-30T01:13:14.909Z,101705.44
2022-11-30T01:15:45.042Z,101706.75
2022-11-30T01:18:16.062Z,101708.72
2022-11-30T01:20:46.138Z,101706.03
2022-11-30T01:23:16.187Z,101707.72
2022-11-30T01:25:55.885Z,101714.03
2022-11-30T01:28:24.367Z,101715.41
2022-11-30T01:31:02.369Z,101708.72
2022-11-30T01:33:34.336Z,101714.38
2022-11-30T01:36:11.457Z,101718.03
2022-11-30T01:38:49.762Z,101716.38
2022-11-30T01:41:32.043Z,101713.69
2022-11-30T01:44:05.348Z,101708.41
2022-11-30T01:46:58.282Z,101710.72
2022-11-30T01:49:41.631Z,101716.34
2022-11-30T01:52:23.135Z,101719.09
2022-11-30T01:55:22.234Z,101719.59
2022-11-30T01:58:09.708Z,101717.59
2022-11-30T02:00:48.041Z,101712.63
2022-11-30T02:03:30.501Z,101718.44
2022-11-30T02:06:01.440Z,101724.34
2022-11-30T02:08:32.075Z,101725.03
2022-11-30T02:11:08.374Z,101717.13
2022-11-30T02:14:12.756Z,101721.59
2022-11-30T02:17:45.760Z,101716.09
2022-11-30T02:20:40.764Z,101721.53
2022-11-30T02:24:15.640Z,101721.13
2022-11-30T02:27:13.495Z,101724.03
2022-11-30T02:30:05.313Z,101723.84
2022-11-30T02:33:08.820Z,101723.22
2022-11-30T02:35:54.779Z,101729.53
2022-11-30T02:38:29.386Z,101722.13
2022-11-30T02:40:59.391Z,101721.28
2022-11-30T02:43:34.052Z,101723.28
2022-11-30T02:46:39.855Z,101717.22
2022-11-30T02:50:06.634Z,101724.50
2022-11-30T02:52:37.326Z,101728.94
2022-11-30T02:55:16.278Z,101724.28
2022-11-30T02:57:47.328Z,101721.34
2022-11-30T03:00:18.343Z,101726.50
2022-11-30T03:02:48.565Z,101731.84
2022-11-30T03:05:16.942Z,101727.34
2022-11-30T03:07:45.323Z,101737.06
2022-11-30T03:10:13.672Z,101736.00
2022-11-30T03:12:42.176Z,101733.25
2022-11-30T03:15:11.546Z,101733.72
2022-11-30T03:17:39.045Z,101734.47
2022-11-30T03:20:08.952Z,101737.41
2022-11-30T03:22:39.050Z,101734.72
2022-11-30T03:25:07.900Z,101735.31
2022-11-30T03:27:36.306Z,101738.31
2022-11-30T03:30:05.952Z,101738.06
2022-11-30T03:32:35.552Z,101736.91
2022-11-30T03:35:06.283Z,101740.97
2022-11-30T03:37:36.297Z,101736.66
2022-11-30T03:40:08.003Z,101745.03
2022-11-30T03:42:38.292Z,101737.72
2022-11-30T03:45:08.872Z,101739.16
2022-11-30T03:47:39.110Z,101743.81
2022-11-30T03:50:09.965Z,101746.84
2022-11-30T03:52:40.154Z,101746.28
2022-11-30T03:55:10.760Z,101751.75
2022-11-30T03:57:40.742Z,101751.94
2022-11-30T04:00:12.277Z,101754.09
2022-11-30T04:02:44.836Z,101759.00
2022-11-30T04:05:15.394Z,101762.91
2022-11-30T04:07:45.575Z,101763.00
2022-11-30T04:10:15.729Z,101764.41
2022-11-30T04:12:45.972Z,101756.19
2022-11-30T04:15:16.237Z,101768.91
2022-11-30T04:17:46.412Z,101764.06
2022-11-30T04:20:16.573Z,101760.66
2022-11-30T04:22:46.708Z,101766.22
2022-11-30T04:25:17.009Z,101768.47
2022-11-30T04:27:47.980Z,101765.47
2022-11-30T04:30:18.344Z,101766.66
2022-11-30T04:32:48.438Z,101772.47
2022-11-30T04:35:18.654Z,101767.81
2022-11-30T04:37:48.657Z,101769.97
2022-11-30T04:40:18.731Z,101776.44
2022-11-30T04:42:48.970Z,101775.03
2022-11-30T04:45:19.242Z,101782.00
2022-11-30T04:47:49.370Z,101786.00
2022-11-30T04:50:19.614Z,101781.66
2022-11-30T04:52:47.854Z,101783.06
2022-11-30T04:55:19.488Z,101780.66
2022-11-30T04:57:48.284Z,101779.41
2022-11-30T05:00:19.459Z,101788.41
2022-11-30T05:02:52.735Z,101786.31
2022-11-30T05:05:24.061Z,101790.81
2022-11-30T05:08:00.191Z,101781.06
2022-11-30T05:10:31.892Z,101786.22
2022-11-30T05:13:02.011Z,101796.75
2022-11-30T05:15:33.208Z,101788.88
2022-11-30T05:18:03.827Z,101795.94
2022-11-30T05:20:33.961Z,101805.88
2022-11-30T05:23:04.082Z,101807.53
2022-11-30T05:25:34.166Z,101809.16
2022-11-30T05:28:04.407Z,101809.50
2022-11-30T05:30:32.654Z,101810.22
2022-11-30T05:33:01.108Z,101810.38
2022-11-30T05:35:29.460Z,101816.47
2022-11-30T05:37:57.999Z,101815.47
2022-11-30T05:40:28.158Z,101817.94
2022-11-30T05:43:02.886Z,101818.41
2022-11-30T05:45:32.910Z,101818.75
2022-11-30T05:48:03.039Z,101826.75
2022-11-30T05:50:33.371Z,101823.47
2022-11-30T05:53:03.413Z,101826.84
2022-11-30T05:55:34.072Z,101822.53
2022-11-30T05:58:04.159Z,101832.69
2022-11-30T06:00:34.230Z,101830.97
2022-11-30T06:03:04.456Z,101835.59
2022-11-30T06:05:36.522Z,101835.13
2022-11-30T06:08:06.546Z,101833.13
2022-11-30T06:10:37.018Z,101837.06
2022-11-30T06:13:10.169Z,101838.66
2022-11-30T06:15:40.176Z,101835.09
2022-11-30T06:18:13.572Z,101840.75
2022-11-30T06:20:43.676Z,101834.56
2022-11-30T06:23:13.731Z,101838.63
2022-11-30T06:25:43.937Z,101845.41
2022-11-30T06:28:14.075Z,101846.97
2022-11-30T06:30:44.147Z,101851.41
2022-11-30T06:33:14.308Z,101852.59
2022-11-30T06:35:47.737Z,101840.31
2022-11-30T06:38:19.052Z,101848.69
2022-11-30T06:40:49.700Z,101848.69
2022-11-30T06:43:20.118Z,101850.72
2022-11-30T06:45:50.364Z,101850.28
2022-11-30T06:48:23.090Z,101856.22
2022-11-30T06:50:53.285Z,101863.13
2022-11-30T06:53:23.408Z,101868.16
2022-11-30T06:55:53.954Z,101863.19
2022-11-30T06:58:23.970Z,101867.19
2022-11-30T07:00:54.049Z,101866.97
2022-11-30T07:03:24.216Z,101870.09
2022-11-30T07:05:54.472Z,101879.00
2022-11-30T07:08:25.019Z,101882.47
2022-11-30T07:10:55.106Z,101880.25
2022-11-30T07:13:25.480Z,101881.13
2022-11-30T07:15:55.764Z,101886.16
2022-11-30T07:18:31.502Z,101886.50
2022-11-30T07:21:05.362Z,101884.22
2022-11-30T07:23:56.736Z,101888.13
2022-11-30T07:26:27.944Z,101896.44
2022-11-30T07:29:00.711Z,101896.75
2022-11-30T07:31:36.143Z,101896.09
2022-11-30T07:34:10.295Z,101898.22
2022-11-30T07:36:37.749Z,101902.16
2022-11-30T07:39:06.005Z,101911.13
2022-11-30T07:41:35.743Z,101904.22
2022-11-30T07:44:09.751Z,101902.28
2022-11-30T07:46:39.705Z,101911.47
2022-11-30T07:49:10.401Z,101910.69
2022-11-30T07:51:38.769Z,101914.38
2022-11-30T07:54:08.901Z,101916.25
2022-11-30T07:56:38.699Z,101916.63
2022-11-30T07:59:09.845Z,101916.03
2022-11-30T08:01:39.261Z,101919.78
2022-11-30T08:04:09.401Z,101910.81
2022-11-30T08:06:40.014Z,101914.44
2022-11-30T08:09:17.829Z,101911.09
2022-11-30T08:11:50.159Z,101914.75
2022-11-30T08:14:19.449Z,101921.69
2022-11-30T08:16:46.633Z,101917.69
2022-11-30T08:19:15.009Z,101921.53
2022-11-30T08:21:43.492Z,101927.25
2022-11-30T08:24:16.097Z,101929.31
2022-11-30T08:26:44.599Z,101928.47
2022-11-30T08:29:12.706Z,101932.66
2022-11-30T08:31:41.194Z,101930.66
2022-11-30T08:34:14.232Z,101941.25
2022-11-30T08:36:47.114Z,101934.34
2022-11-30T08:39:20.917Z,101939.19
2022-11-30T08:41:52.128Z,101937.50
2022-11-30T08:44:22.197Z,101933.34
2022-11-30T08:46:52.926Z,101936.59
2022-11-30T08:52:18.450Z,101938.09
2022-11-30T08:54:48.845Z,101937.66
2022-11-30T08:57:21.863Z,101942.38
2022-11-30T08:59:51.662Z,101945.69
2022-11-30T09:02:21.732Z,101949.53
2022-11-30T09:04:53.577Z,101948.47
2022-11-30T09:07:22.002Z,101944.31
2022-11-30T09:09:51.868Z,101956.78
2022-11-30T09:12:22.244Z,101941.41
2022-11-30T09:14:57.738Z,101944.22
2022-11-30T09:17:28.601Z,101951.69
2022-11-30T09:19:58.423Z,101946.47
2022-11-30T09:22:29.303Z,101948.75
2022-11-30T09:24:58.730Z,101950.69
2022-11-30T09:27:32.058Z,101946.44
2022-11-30T09:30:00.244Z,101948.84
2022-11-30T09:32:29.770Z,101945.75
2022-11-30T09:34:57.062Z,101948.09
2022-11-30T09:37:25.376Z,101943.94
2022-11-30T09:39:53.666Z,101939.47
2022-11-30T09:43:06.808Z,101942.56
2022-11-30T09:45:38.628Z,101948.00
2022-11-30T09:48:17.692Z,101948.25
2022-11-30T09:50:50.778Z,101938.84
2022-11-30T09:54:01.881Z,101940.84
2022-11-30T09:56:40.642Z,101936.09
2022-11-30T09:59:32.798Z,101937.00
2022-11-30T10:02:18.547Z,101942.88
2022-11-30T10:04:48.380Z,101945.72
2022-11-30T10:08:17.800Z,101946.91
2022-11-30T10:11:15.349Z,101941.41
2022-11-30T10:14:02.989Z,101937.28
2022-11-30T10:17:09.395Z,101939.38
2022-11-30T10:20:30.470Z,101938.66
2022-11-30T10:23:42.848Z,101951.06
2022-11-30T10:26:23.651Z,101944.16
2022-11-30T10:29:11.552Z,101940.81
2022-11-30T10:31:46.087Z,101945.25
2022-11-30T10:34:29.889Z,101939.88
2022-11-30T10:37:20.485Z,101943.56
2022-11-30T10:40:38.893Z,101938.44
2022-11-30T10:43:38.267Z,101934.03
2022-11-30T10:46:27.636Z,101941.97
2022-11-30T10:49:13.820Z,101932.84
2022-11-30T10:51:53.523Z,101945.84
2022-11-30T10:54:24.353Z,101940.41
2022-11-30T10:56:54.462Z,101933.72
2022-11-30T10:59:46.860Z,101936.13
2022-11-30T11:02:40.411Z,101932.94
2022-11-30T11:05:29.013Z,101930.59
2022-11-30T11:08:25.970Z,101928.78
2022-11-30T11:10:56.053Z,101937.50
2022-11-30T11:13:43.945Z,101947.06
2022-11-30T11:16:13.994Z,101943.53
2022-11-30T11:18:57.989Z,101939.22
2022-11-30T11:21:28.154Z,101936.94
2022-11-30T11:23:58.728Z,101940.97
2022-11-30T11:26:30.767Z,101940.09
2022-11-30T11:29:00.618Z,101944.19
2022-11-30T11:31:47.435Z,101948.75
2022-11-30T11:34:33.711Z,101945.88
2022-11-30T11:37:37.864Z,101943.53
2022-11-30T11:40:18.227Z,101947.59
2022-11-30T11:42:55.332Z,101953.88
2022-11-30T11:45:38.096Z,101952.50
2022-11-30T11:48:38.034Z,101960.19
2022-11-30T11:51:10.934Z,101958.91
2022-11-30T11:54:03.963Z,101953.94
2022-11-30T11:56:37.783Z,101960.28
2022-11-30T11:59:32.812Z,101950.41
2022-11-30T12:02:31.448Z,101953.16
2022-11-30T12:05:24.596Z,101953.84
2022-11-30T12:08:38.362Z,101955.31
2022-11-30T12:11:46.462Z,101954.56
2022-11-30T12:14:20.038Z,101960.09
2022-11-30T12:17:52.965Z,101957.59
2022-11-30T12:21:14.602Z,101958.91
2022-11-30T12:24:31.096Z,101960.59
2022-11-30T12:28:03.515Z,101955.09
2022-11-30T12:31:03.597Z,101969.56
2022-11-30T12:34:06.255Z,101958.22
2022-11-30T12:37:19.106Z,101965.78
2022-11-30T12:40:17.975Z,101965.78
2022-11-30T12:43:31.833Z,101970.56
2022-11-30T12:46:32.846Z,101956.78
2022-11-30T12:49:42.045Z,101952.41
2022-11-30T12:52:30.674Z,101962.59
2022-11-30T12:55:50.872Z,101968.00
2022-11-30T12:58:58.668Z,101965.75
2022-11-30T13:02:01.279Z,101968.03
2022-11-30T13:04:57.896Z,101965.63
2022-11-30T13:07:42.648Z,101959.50
2022-11-30T13:10:12.557Z,101975.84
2022-11-30T13:12:51.661Z,101975.81
2022-11-30T13:15:31.584Z,101973.09
2022-11-30T13:18:06.705Z,101977.63
2022-11-30T13:21:16.067Z,101982.03
2022-11-30T13:24:23.186Z,101984.31
2022-11-30T13:27:06.529Z,101982.22
2022-11-30T13:30:34.710Z,101984.59
2022-11-30T13:33:35.481Z,101984.03
2022-11-30T13:36:44.967Z,101985.94
2022-11-30T13:39:14.942Z,101986.69
2022-11-30T13:41:51.549Z,101991.13
2022-11-30T13:44:44.403Z,101988.25
2022-11-30T13:47:29.964Z,101995.16
2022-11-30T13:50:24.978Z,101989.63
2022-11-30T13:52:58.066Z,102000.81
2022-11-30T13:55:43.181Z,101985.25
2022-11-30T13:58:16.434Z,101988.72
2022-11-30T14:01:01.162Z,101997.09
2022-11-30T14:03:33.359Z,101998.66
2022-11-30T14:06:41.625Z,101995.72
2022-11-30T14:09:34.056Z,101995.47
2022-11-30T14:12:36.746Z,102004.78
2022-11-30T14:15:41.705Z,102005.59
2022-11-30T14:18:11.588Z,102011.16
2022-11-30T14:21:00.912Z,102008.03
2022-11-30T14:23:39.306Z,102014.66
2022-11-30T14:26:18.040Z,102020.63
2022-11-30T14:29:33.407Z,102019.91
2022-11-30T14:32:30.132Z,102022.03
2022-11-30T14:35:20.030Z,102020.66
2022-11-30T14:37:58.074Z,102029.38
2022-11-30T14:40:31.095Z,102025.69
2022-11-30T14:43:04.274Z,102037.88
2022-11-30T14:45:35.347Z,102033.59
2022-11-30T14:48:16.879Z,102026.66
2022-11-30T14:51:03.363Z,102036.69
2022-11-30T14:54:06.427Z,102040.44
2022-11-30T14:57:00.285Z,102040.19
2022-11-30T14:59:53.222Z,102043.16
2022-11-30T15:02:38.750Z,102038.16
2022-11-30T15:05:20.891Z,102038.00
2022-11-30T15:07:51.292Z,102043.41
2022-11-30T15:10:34.296Z,102037.56
2022-11-30T15:13:03.825Z,102035.44
2022-11-30T15:15:36.131Z,102041.06
2022-11-30T15:18:19.890Z,102041.34
2022-11-30T15:21:17.409Z,102050.59
2022-11-30T15:23:50.847Z,102038.44
2022-11-30T15:26:51.020Z,102033.28
2022-11-30T15:30:01.962Z,102047.56
2022-11-30T15:32:32.328Z,102052.97
2022-11-30T15:35:02.799Z,102046.66
2022-11-30T15:37:39.125Z,102050.84
2022-11-30T15:40:22.771Z,102048.69
2022-11-30T15:42:53.088Z,102048.19
2022-11-30T15:45:36.347Z,102053.97
2022-11-30T15:48:33.877Z,102061.19
2022-11-30T15:51:02.276Z,102059.28
2022-11-30T15:53:50.694Z,102058.84
2022-11-30T16:01:06.607Z,102069.00
2022-11-30T16:03:59.797Z,102066.88
2022-11-30T16:06:46.331Z,102069.06
2022-11-30T16:09:33.923Z,102074.72
2022-11-30T16:12:02.598Z,102080.47
2022-11-30T16:14:32.460Z,102088.50
2022-11-30T16:17:05.612Z,102089.66
2022-11-30T16:19:38.843Z,102076.38
2022-11-30T16:22:14.451Z,102087.22
2022-11-30T16:24:43.170Z,102082.47
2022-11-30T16:27:19.914Z,102087.53
2022-11-30T16:29:52.809Z,102090.22
2022-11-30T16:32:23.361Z,102086.66
2022-11-30T16:34:52.992Z,102079.34
2022-11-30T16:37:22.800Z,102091.03
2022-11-30T16:39:52.657Z,102087.63
2022-11-30T16:42:23.081Z,102085.59
2022-11-30T16:44:52.709Z,102088.19
2022-11-30T16:47:22.492Z,102089.00
2022-11-30T16:49:52.186Z,102089.66
2022-11-30T16:52:21.948Z,102085.03
2022-11-30T16:54:51.817Z,102085.53
2022-11-30T16:57:21.528Z,102091.41
2022-11-30T16:59:51.738Z,102088.66
2022-11-30T17:02:24.780Z,102100.41
2022-11-30T17:04:58.366Z,102108.28
2022-11-30T17:07:26.584Z,102109.41
2022-11-30T17:09:55.118Z,102117.47
2022-11-30T17:12:26.249Z,102107.16
2022-11-30T17:14:54.997Z,102114.06
2022-11-30T17:17:23.558Z,102103.34
2022-11-30T17:19:52.019Z,102106.75
2022-11-30T17:22:20.413Z,102100.25
2022-11-30T17:24:49.098Z,102107.59
2022-11-30T17:27:17.239Z,102107.44
2022-11-30T17:29:45.718Z,102105.09
2022-11-30T17:32:14.154Z,102108.06
2022-11-30T17:34:42.561Z,102118.41
2022-11-30T17:37:13.715Z,102120.81
2022-11-30T17:39:43.964Z,102116.31
2022-11-30T17:42:16.473Z,102116.94
2022-11-30T17:44:47.251Z,102124.22
2022-11-30T17:47:17.562Z,102126.22
2022-11-30T17:49:47.685Z,102117.88
2022-11-30T17:52:18.075Z,102123.84
2022-11-30T17:54:48.321Z,102121.91
2022-11-30T17:57:18.625Z,102127.59
2022-11-30T17:59:48.717Z,102127.13
2022-11-30T18:02:18.898Z,102120.84
2022-11-30T18:04:49.294Z,102132.03
2022-11-30T18:07:20.185Z,102129.09
2022-11-30T18:09:50.284Z,102136.13
2022-11-30T18:12:20.949Z,102147.97
2022-11-30T18:14:51.176Z,102154.56
2022-11-30T18:17:21.284Z,102150.81
2022-11-30T18:19:49.696Z,102149.03
2022-11-30T18:22:18.107Z,102150.38
2022-11-30T18:24:47.043Z,102158.53
2022-11-30T18:27:15.118Z,102153.69
2022-11-30T18:29:43.434Z,102161.88
2022-11-30T18:32:12.358Z,102165.56
2022-11-30T18:34:40.337Z,102164.53
2022-11-30T18:37:08.635Z,102161.63
2022-11-30T18:39:37.031Z,102166.59
2022-11-30T18:42:05.953Z,102161.81
2022-11-30T18:44:33.860Z,102171.13
2022-11-30T18:47:02.309Z,102179.88
2022-11-30T18:49:30.705Z,102172.19
2022-11-30T18:51:59.279Z,102171.13
2022-11-30T18:54:27.525Z,102171.84
2022-11-30T18:56:55.965Z,102182.16
2022-11-30T18:59:24.467Z,102178.81
2022-11-30T19:01:53.521Z,102176.06
2022-11-30T19:04:25.866Z,102174.91
2022-11-30T19:06:55.895Z,102178.47
2022-11-30T19:09:26.048Z,102172.00
2022-11-30T19:11:58.088Z,102173.84
2022-11-30T19:14:27.479Z,102176.47
2022-11-30T19:16:56.058Z,102173.75
2022-11-30T19:19:24.469Z,102179.06
2022-11-30T19:21:52.877Z,102178.91
2022-11-30T19:24:24.010Z,102180.94
2022-11-30T19:26:54.722Z,102187.28
2022-11-30T19:29:25.022Z,102185.97
2022-11-30T19:31:55.097Z,102193.66
2022-11-30T19:34:25.251Z,102183.34
2022-11-30T19:36:55.329Z,102190.72
2022-11-30T19:39:25.373Z,102179.22
2022-11-30T19:41:55.467Z,102191.16
2022-11-30T19:44:25.564Z,102187.16
2022-11-30T19:46:55.651Z,102184.75
2022-11-30T19:49:25.911Z,102191.19
2022-11-30T19:51:56.028Z,102195.06
2022-11-30T19:54:26.418Z,102203.53
2022-11-30T19:56:58.140Z,102199.28
2022-11-30T19:59:28.203Z,102207.50
2022-11-30T20:01:58.411Z,102202.06
2022-11-30T20:04:28.425Z,102209.84
2022-11-30T20:06:56.949Z,102204.84
2022-11-30T20:09:25.401Z,102211.44
2022-11-30T20:11:54.503Z,102218.38
2022-11-30T20:14:23.153Z,102217.41
2022-11-30T20:16:52.788Z,102219.94
2022-11-30T20:19:20.566Z,102229.66
2022-11-30T20:21:49.006Z,102230.22
2022-11-30T20:24:17.252Z,102223.34
2022-11-30T20:26:46.877Z,102221.22
2022-11-30T20:29:19.246Z,102223.28
2022-11-30T20:31:49.474Z,102232.34
2022-11-30T20:34:18.658Z,102226.06
2022-11-30T20:36:46.729Z,102231.16
2022-11-30T20:39:16.602Z,102228.19
2022-11-30T20:41:46.480Z,102225.66
2022-11-30T20:44:16.437Z,102226.63
2022-11-30T20:46:46.342Z,102228.53
2022-11-30T20:49:21.447Z,102231.34
2022-11-30T20:51:51.132Z,102227.38
2022-11-30T20:54:18.785Z,102226.97
2022-11-30T20:56:51.113Z,102225.75
2022-11-30T20:59:23.842Z,102229.91
2022-11-30T21:01:56.358Z,102230.28
2022-11-30T21:04:26.349Z,102228.59
2022-11-30T21:06:55.437Z,102227.97
2022-11-30T21:09:25.131Z,102228.19
2022-11-30T21:11:55.002Z,102230.66
2022-11-30T21:14:24.662Z,102234.72
2022-11-30T21:16:54.574Z,102233.25
2022-11-30T21:19:24.689Z,102237.72
2022-11-30T21:21:56.137Z,102244.47
2022-11-30T21:24:25.411Z,102243.97
2022-11-30T21:26:55.227Z,102247.38
2022-11-30T21:29:25.041Z,102244.44
2022-11-30T21:31:54.916Z,102247.44
2022-11-30T21:34:25.574Z,102244.75
2022-11-30T21:36:55.094Z,102249.81
2022-11-30T21:39:25.024Z,102246.25
2022-11-30T21:41:54.782Z,102248.47
2022-11-30T21:44:24.779Z,102249.19
2022-11-30T21:46:54.655Z,102250.63
2022-11-30T21:49:23.716Z,102243.56
2022-11-30T21:51:51.516Z,102251.47
2022-11-30T21:54:20.137Z,102253.84
2022-11-30T21:56:52.360Z,102252.66
2022-11-30T21:59:20.345Z,102251.81
2022-11-30T22:01:48.414Z,102252.25
2022-11-30T22:04:16.993Z,102246.16
2022-11-30T22:06:45.446Z,102252.88
2022-11-30T22:09:18.117Z,102259.59
2022-11-30T22:11:46.665Z,102261.28
2022-11-30T22:14:17.623Z,102256.63
2022-11-30T22:16:46.838Z,102245.94
2022-11-30T22:19:18.116Z,102251.63
2022-11-30T22:21:50.414Z,102254.34
2022-11-30T22:24:18.655Z,102250.38
2022-11-30T22:26:49.332Z,102244.13
2022-11-30T22:29:23.223Z,102247.84
2022-11-30T22:31:55.249Z,102254.41
2022-11-30T22:34:25.363Z,102246.19
2022-11-30T22:36:55.053Z,102251.69
2022-11-30T22:39:24.649Z,102251.44
2022-11-30T22:41:55.756Z,102250.19
2022-11-30T22:44:26.805Z,102251.28
2022-11-30T22:46:57.586Z,102257.97
2022-11-30T22:49:25.275Z,102247.06
2022-11-30T22:51:53.630Z,102248.94
2022-11-30T22:54:22.256Z,102252.94
2022-11-30T22:56:50.426Z,102246.44
2022-11-30T22:59:18.787Z,102247.91
2022-11-30T23:01:51.579Z,102246.63
2022-11-30T23:04:25.060Z,102240.75
2022-11-30T23:06:53.152Z,102237.34
2022-11-30T23:09:24.319Z,102238.41
2022-11-30T23:11:53.201Z,102236.16
2022-11-30T23:14:22.999Z,102234.69
2022-11-30T23:16:52.733Z,102226.25
2022-11-30T23:19:22.692Z,102223.69
2022-11-30T23:21:53.415Z,102228.16
2022-11-30T23:24:23.987Z,102225.66
2022-11-30T23:26:54.077Z,102232.19
2022-11-30T23:29:24.156Z,102232.84
2022-11-30T23:31:53.765Z,102224.22
2022-11-30T23:34:23.803Z,102226.56
2022-11-30T23:36:51.970Z,102223.25
2022-11-30T23:39:21.783Z,102222.00
2022-11-30T23:41:52.061Z,102223.56
2022-11-30T23:44:21.542Z,102224.34
2022-11-30T23:46:51.601Z,102228.97
2022-11-30T23:49:21.565Z,102221.03
2022-11-30T23:51:51.095Z,102229.44
2022-11-30T23:54:21.181Z,102235.94
2022-11-30T23:56:51.269Z,102227.94
2022-11-30T23:59:21.342Z,102224.63
